KSLB/SLB METAR and TAF weather

Enter ICAO airport designator
Station Type Date Time Source
KSLB METAR 2020/07/14 23:55 UTC NOAA

KSLB 142355Z AUTO 02012G19KT 10SM OVC025 21/15 A2994 RMK AO2


Station Type Date Time Source
KSLB Decoded METAR 2020/07/14 23:55 UTC NOAA

Storm Lake, IA, United States (KSLB) 42-36N 095-14W
Jul 14, 2020 - 07:55 PM EDT / 2020.07.14 2355 UTC
Wind: from the NNE (020 degrees) at 14 MPH (12 KT) gusting to 22 MPH (19 KT):0
Visibility: 10 mile(s):0
Sky conditions: overcast
Temperature: 69 F (21 C)
Dew Point: 59 F (15 C)
Relative Humidity: 68%
Pressure (altimeter): 29.94 in. Hg (1013 hPa)
ob: KSLB 142355Z AUTO 02012G19KT 10SM OVC025 21/15 A2994 RMK AO2
cycle: 0

Station Type Date Time Source
KSLB TAF UTC NOAA

Error!

Example: see airport list